LTAT/MLX METAR and TAF weather

Enter ICAO airport designator
Station Type Date Time Source
LTAT METAR 2022/01/19 19:20 UTC NOAA

LTAT 191920Z 31005KT 7000 BKN020 BKN033 M03/M10 Q1015 TEMPO FM2000 31018G28KT


Station Type Date Time Source
LTAT Decoded METAR 2022/01/19 19:20 UTC NOAA

Malatya / Erhac, Turkey (LTAT) 38-26N 038-05E 849M
Jan 19, 2022 - 02:20 PM EST / 2022.01.19 1920 UTC
Wind: from the NW (310 degrees) at 6 MPH (5 KT):0
Visibility: 4 mile(s):0
Sky conditions: mostly cloudy
Temperature: 26 F (-3 C)
Windchill: 19 F (-7 C):1
Dew Point: 14 F (-10 C)
Relative Humidity: 58%
Pressure (altimeter): 29.97 in. Hg (1015 hPa)
ob: LTAT 191920Z 31005KT 7000 BKN020 BKN033 M03/M10 Q1015 TEMPO FM2000 31018G28KT
cycle: 19

Station Type Date Time Source
LTAT TAF 2022/01/19 18:03 UTC NOAA

TAF LTAT 191640Z 1918/2018 31009KT 6000 BKN020 BKN033
TEMPO 1920/1924 31018G28KT PROB30
TEMPO 2001/2005 3500 BR
TEMPO 2006/2010 31018G28KT
BECMG 2011/2013 SCT040

Example: see airport list